sensor_id;sensor_type;location;lat;lon;timestamp;P1;durP1;ratioP1;P2;durP2;ratioP2
43519;SDS011;46848;51.980;5.918;2023-08-21T00:01:16;8.60;;;4.43;;
43519;SDS011;46848;51.980;5.918;2023-08-21T00:03:41;7.32;;;4.32;;
43519;SDS011;46848;51.980;5.918;2023-08-21T00:06:07;5.88;;;2.85;;
43519;SDS011;46848;51.980;5.918;2023-08-21T00:08:33;4.80;;;2.08;;
43519;SDS011;46848;51.980;5.918;2023-08-21T00:10:58;4.03;;;1.55;;
43519;SDS011;46848;51.980;5.918;2023-08-21T00:13:24;4.68;;;1.58;;
43519;SDS011;46848;51.980;5.918;2023-08-21T00:15:49;5.38;;;1.80;;
43519;SDS011;46848;51.980;5.918;2023-08-21T00:18:15;5.45;;;1.55;;
43519;SDS011;46848;51.980;5.918;2023-08-21T00:20:41;5.97;;;1.55;;
43519;SDS011;46848;51.980;5.918;2023-08-21T00:23:07;4.75;;;1.40;;
43519;SDS011;46848;51.980;5.918;2023-08-21T00:25:34;5.00;;;1.48;;
43519;SDS011;46848;51.980;5.918;2023-08-21T00:28:01;4.40;;;1.48;;
43519;SDS011;46848;51.980;5.918;2023-08-21T00:30:26;4.57;;;1.20;;
43519;SDS011;46848;51.980;5.918;2023-08-21T00:32:52;4.03;;;1.02;;
43519;SDS011;46848;51.980;5.918;2023-08-21T00:35:17;6.30;;;1.15;;
43519;SDS011;46848;51.980;5.918;2023-08-21T00:37:43;6.05;;;1.50;;
43519;SDS011;46848;51.980;5.918;2023-08-21T00:40:09;3.58;;;1.10;;
43519;SDS011;46848;51.980;5.918;2023-08-21T00:42:35;3.28;;;1.02;;
43519;SDS011;46848;51.980;5.918;2023-08-21T00:45:00;5.85;;;1.30;;
43519;SDS011;46848;51.980;5.918;2023-08-21T00:47:26;5.13;;;1.40;;
43519;SDS011;46848;51.980;5.918;2023-08-21T00:49:52;5.45;;;1.90;;
43519;SDS011;46848;51.980;5.918;2023-08-21T00:52:17;4.38;;;1.50;;
43519;SDS011;46848;51.980;5.918;2023-08-21T00:54:43;3.85;;;1.52;;
43519;SDS011;46848;51.980;5.918;2023-08-21T00:57:10;4.15;;;1.08;;
43519;SDS011;46848;51.980;5.918;2023-08-21T00:59:36;4.68;;;1.38;;
43519;SDS011;46848;51.980;5.918;2023-08-21T01:02:02;4.63;;;1.30;;
43519;SDS011;46848;51.980;5.918;2023-08-21T01:04:28;6.35;;;1.35;;
43519;SDS011;46848;51.980;5.918;2023-08-21T01:06:54;3.40;;;1.10;;
43519;SDS011;46848;51.980;5.918;2023-08-21T01:12:25;3.78;;;1.27;;
43519;SDS011;46848;51.980;5.918;2023-08-21T01:15:01;4.75;;;1.40;;
43519;SDS011;46848;51.980;5.918;2023-08-21T01:17:32;4.35;;;1.25;;
43519;SDS011;46848;51.980;5.918;2023-08-21T01:20:00;2.08;;;1.05;;
43519;SDS011;46848;51.980;5.918;2023-08-21T01:22:27;4.45;;;1.27;;
43519;SDS011;46848;51.980;5.918;2023-08-21T01:25:01;3.35;;;1.33;;
43519;SDS011;46848;51.980;5.918;2023-08-21T01:27:27;4.70;;;1.33;;
43519;SDS011;46848;51.980;5.918;2023-08-21T01:29:53;5.88;;;1.52;;
43519;SDS011;46848;51.980;5.918;2023-08-21T01:35:05;5.35;;;1.65;;
43519;SDS011;46848;51.980;5.918;2023-08-21T01:37:31;3.63;;;1.45;;
43519;SDS011;46848;51.980;5.918;2023-08-21T01:39:58;6.68;;;1.73;;
43519;SDS011;46848;51.980;5.918;2023-08-21T01:42:23;4.50;;;1.20;;
43519;SDS011;46848;51.980;5.918;2023-08-21T01:44:52;4.43;;;1.10;;
43519;SDS011;46848;51.980;5.918;2023-08-21T01:47:17;4.47;;;1.30;;
43519;SDS011;46848;51.980;5.918;2023-08-21T01:49:43;4.93;;;1.27;;
43519;SDS011;46848;51.980;5.918;2023-08-21T01:52:09;4.30;;;1.50;;
43519;SDS011;46848;51.980;5.918;2023-08-21T01:54:35;4.55;;;1.40;;
43519;SDS011;46848;51.980;5.918;2023-08-21T01:57:01;4.57;;;1.30;;
43519;SDS011;46848;51.980;5.918;2023-08-21T01:59:26;4.43;;;1.20;;
43519;SDS011;46848;51.980;5.918;2023-08-21T02:01:54;4.60;;;1.55;;
43519;SDS011;46848;51.980;5.918;2023-08-21T02:04:19;4.90;;;1.85;;
43519;SDS011;46848;51.980;5.918;2023-08-21T02:06:45;6.35;;;1.40;;
43519;SDS011;46848;51.980;5.918;2023-08-21T02:09:10;5.75;;;1.50;;
43519;SDS011;46848;51.980;5.918;2023-08-21T02:11:36;3.17;;;1.10;;
43519;SDS011;46848;51.980;5.918;2023-08-21T02:14:02;7.15;;;1.70;;
43519;SDS011;46848;51.980;5.918;2023-08-21T02:16:27;4.35;;;1.30;;
43519;SDS011;46848;51.980;5.918;2023-08-21T02:18:53;3.17;;;1.20;;
43519;SDS011;46848;51.980;5.918;2023-08-21T02:21:20;3.33;;;1.20;;
43519;SDS011;46848;51.980;5.918;2023-08-21T02:23:45;4.22;;;1.35;;
43519;SDS011;46848;51.980;5.918;2023-08-21T02:26:11;3.45;;;1.20;;
43519;SDS011;46848;51.980;5.918;2023-08-21T02:28:37;5.72;;;1.20;;
43519;SDS011;46848;51.980;5.918;2023-08-21T02:31:02;4.47;;;1.50;;
43519;SDS011;46848;51.980;5.918;2023-08-21T02:33:28;6.05;;;1.40;;
43519;SDS011;46848;51.980;5.918;2023-08-21T02:35:53;3.92;;;1.02;;
43519;SDS011;46848;51.980;5.918;2023-08-21T02:38:19;5.47;;;1.48;;
43519;SDS011;46848;51.980;5.918;2023-08-21T02:40:45;4.95;;;1.67;;
43519;SDS011;46848;51.980;5.918;2023-08-21T02:43:12;3.88;;;1.48;;
43519;SDS011;46848;51.980;5.918;2023-08-21T02:45:38;3.95;;;1.13;;
43519;SDS011;46848;51.980;5.918;2023-08-21T02:48:03;6.35;;;1.60;;
43519;SDS011;46848;51.980;5.918;2023-08-21T02:50:29;5.57;;;1.42;;
43519;SDS011;46848;51.980;5.918;2023-08-21T02:52:55;4.07;;;1.75;;
43519;SDS011;46848;51.980;5.918;2023-08-21T02:55:21;7.13;;;1.52;;
43519;SDS011;46848;51.980;5.918;2023-08-21T02:57:47;3.70;;;1.35;;
43519;SDS011;46848;51.980;5.918;2023-08-21T03:00:12;4.00;;;1.45;;
43519;SDS011;46848;51.980;5.918;2023-08-21T03:02:38;4.72;;;1.85;;
43519;SDS011;46848;51.980;5.918;2023-08-21T03:05:07;4.43;;;1.80;;
43519;SDS011;46848;51.980;5.918;2023-08-21T03:07:34;4.80;;;1.60;;
43519;SDS011;46848;51.980;5.918;2023-08-21T03:09:59;4.95;;;1.40;;
43519;SDS011;46848;51.980;5.918;2023-08-21T03:12:26;6.35;;;1.40;;
43519;SDS011;46848;51.980;5.918;2023-08-21T03:14:52;4.43;;;1.60;;
43519;SDS011;46848;51.980;5.918;2023-08-21T03:17:18;3.78;;;0.90;;
43519;SDS011;46848;51.980;5.918;2023-08-21T03:19:43;2.58;;;1.00;;
43519;SDS011;46848;51.980;5.918;2023-08-21T03:22:09;3.33;;;1.10;;
43519;SDS011;46848;51.980;5.918;2023-08-21T03:24:34;4.03;;;1.00;;
43519;SDS011;46848;51.980;5.918;2023-08-21T03:27:00;4.57;;;1.40;;
43519;SDS011;46848;51.980;5.918;2023-08-21T03:29:26;7.75;;;1.60;;
43519;SDS011;46848;51.980;5.918;2023-08-21T03:31:52;4.35;;;1.35;;
43519;SDS011;46848;51.980;5.918;2023-08-21T03:34:21;3.63;;;1.20;;
43519;SDS011;46848;51.980;5.918;2023-08-21T03:36:47;3.88;;;1.10;;
43519;SDS011;46848;51.980;5.918;2023-08-21T03:39:13;6.05;;;1.23;;
43519;SDS011;46848;51.980;5.918;2023-08-21T03:41:38;4.43;;;1.02;;
43519;SDS011;46848;51.980;5.918;2023-08-21T03:44:04;4.82;;;1.20;;
43519;SDS011;46848;51.980;5.918;2023-08-21T03:46:30;5.45;;;1.27;;
43519;SDS011;46848;51.980;5.918;2023-08-21T03:48:55;5.00;;;1.48;;
43519;SDS011;46848;51.980;5.918;2023-08-21T03:51:21;4.90;;;1.10;;
43519;SDS011;46848;51.980;5.918;2023-08-21T03:53:47;4.00;;;1.20;;
43519;SDS011;46848;51.980;5.918;2023-08-21T03:56:12;3.05;;;0.95;;
43519;SDS011;46848;51.980;5.918;2023-08-21T03:58:38;3.35;;;0.80;;
43519;SDS011;46848;51.980;5.918;2023-08-21T04:01:03;3.28;;;1.10;;
43519;SDS011;46848;51.980;5.918;2023-08-21T04:03:29;3.67;;;0.77;;
43519;SDS011;46848;51.980;5.918;2023-08-21T04:05:55;3.45;;;1.05;;
43519;SDS011;46848;51.980;5.918;2023-08-21T04:08:23;3.33;;;1.15;;
43519;SDS011;46848;51.980;5.918;2023-08-21T04:10:49;5.93;;;1.20;;
43519;SDS011;46848;51.980;5.918;2023-08-21T04:13:18;4.47;;;0.95;;
43519;SDS011;46848;51.980;5.918;2023-08-21T04:15:44;4.13;;;1.20;;
43519;SDS011;46848;51.980;5.918;2023-08-21T04:18:10;5.88;;;1.30;;
43519;SDS011;46848;51.980;5.918;2023-08-21T04:20:36;5.28;;;1.30;;
43519;SDS011;46848;51.980;5.918;2023-08-21T04:23:02;3.53;;;1.25;;
43519;SDS011;46848;51.980;5.918;2023-08-21T04:25:28;4.13;;;1.15;;
43519;SDS011;46848;51.980;5.918;2023-08-21T04:27:53;6.38;;;1.63;;
43519;SDS011;46848;51.980;5.918;2023-08-21T04:30:19;2.92;;;1.13;;
43519;SDS011;46848;51.980;5.918;2023-08-21T04:32:45;4.65;;;1.13;;
43519;SDS011;46848;51.980;5.918;2023-08-21T04:35:12;3.90;;;1.15;;
43519;SDS011;46848;51.980;5.918;2023-08-21T04:37:37;3.75;;;1.23;;
43519;SDS011;46848;51.980;5.918;2023-08-21T04:40:08;6.25;;;1.48;;
43519;SDS011;46848;51.980;5.918;2023-08-21T04:42:34;5.07;;;1.00;;
43519;SDS011;46848;51.980;5.918;2023-08-21T04:45:00;3.80;;;0.90;;
43519;SDS011;46848;51.980;5.918;2023-08-21T04:47:27;4.28;;;1.15;;
43519;SDS011;46848;51.980;5.918;2023-08-21T04:49:53;6.03;;;1.33;;
43519;SDS011;46848;51.980;5.918;2023-08-21T04:52:19;4.32;;;1.33;;
43519;SDS011;46848;51.980;5.918;2023-08-21T04:54:47;5.07;;;1.40;;
43519;SDS011;46848;51.980;5.918;2023-08-21T04:57:13;5.30;;;1.20;;
43519;SDS011;46848;51.980;5.918;2023-08-21T04:59:39;4.05;;;1.10;;
43519;SDS011;46848;51.980;5.918;2023-08-21T05:02:05;3.72;;;1.13;;
43519;SDS011;46848;51.980;5.918;2023-08-21T05:04:30;3.80;;;1.10;;
43519;SDS011;46848;51.980;5.918;2023-08-21T05:06:56;4.20;;;0.90;;
43519;SDS011;46848;51.980;5.918;2023-08-21T05:09:22;4.28;;;0.98;;
43519;SDS011;46848;51.980;5.918;2023-08-21T05:11:47;5.30;;;0.90;;
43519;SDS011;46848;51.980;5.918;2023-08-21T05:14:13;4.80;;;1.02;;
43519;SDS011;46848;51.980;5.918;2023-08-21T05:16:39;5.15;;;1.20;;
43519;SDS011;46848;51.980;5.918;2023-08-21T05:19:04;4.18;;;1.10;;
43519;SDS011;46848;51.980;5.918;2023-08-21T05:21:30;5.40;;;1.50;;
43519;SDS011;46848;51.980;5.918;2023-08-21T05:23:55;6.88;;;1.13;;
43519;SDS011;46848;51.980;5.918;2023-08-21T05:26:21;4.18;;;1.27;;
43519;SDS011;46848;51.980;5.918;2023-08-21T05:28:46;4.43;;;1.02;;
43519;SDS011;46848;51.980;5.918;2023-08-21T05:31:12;3.65;;;0.90;;
43519;SDS011;46848;51.980;5.918;2023-08-21T05:33:38;4.10;;;1.35;;
43519;SDS011;46848;51.980;5.918;2023-08-21T05:36:04;4.10;;;1.00;;
43519;SDS011;46848;51.980;5.918;2023-08-21T05:38:31;6.07;;;1.55;;
43519;SDS011;46848;51.980;5.918;2023-08-21T05:40:57;5.63;;;1.25;;
43519;SDS011;46848;51.980;5.918;2023-08-21T05:43:23;3.83;;;1.13;;
43519;SDS011;46848;51.980;5.918;2023-08-21T05:45:49;4.45;;;1.15;;
43519;SDS011;46848;51.980;5.918;2023-08-21T05:48:14;5.63;;;1.40;;
43519;SDS011;46848;51.980;5.918;2023-08-21T05:50:41;6.10;;;1.33;;
43519;SDS011;46848;51.980;5.918;2023-08-21T05:53:07;3.75;;;1.00;;
43519;SDS011;46848;51.980;5.918;2023-08-21T05:55:33;4.30;;;1.30;;
43519;SDS011;46848;51.980;5.918;2023-08-21T05:57:58;4.22;;;1.17;;
43519;SDS011;46848;51.980;5.918;2023-08-21T06:00:24;6.03;;;1.33;;
43519;SDS011;46848;51.980;5.918;2023-08-21T06:02:50;4.90;;;1.08;;
43519;SDS011;46848;51.980;5.918;2023-08-21T06:05:15;6.53;;;1.30;;
43519;SDS011;46848;51.980;5.918;2023-08-21T06:07:41;5.43;;;1.20;;
43519;SDS011;46848;51.980;5.918;2023-08-21T06:10:09;4.80;;;1.20;;
43519;SDS011;46848;51.980;5.918;2023-08-21T06:12:37;5.32;;;1.20;;
43519;SDS011;46848;51.980;5.918;2023-08-21T06:15:06;6.63;;;1.25;;
43519;SDS011;46848;51.980;5.918;2023-08-21T06:17:33;6.20;;;1.35;;
43519;SDS011;46848;51.980;5.918;2023-08-21T06:19:59;6.50;;;1.92;;
43519;SDS011;46848;51.980;5.918;2023-08-21T06:22:25;5.30;;;1.35;;
43519;SDS011;46848;51.980;5.918;2023-08-21T06:24:51;5.68;;;1.17;;
43519;SDS011;46848;51.980;5.918;2023-08-21T06:27:16;4.38;;;1.17;;
43519;SDS011;46848;51.980;5.918;2023-08-21T06:29:42;4.07;;;1.55;;
43519;SDS011;46848;51.980;5.918;2023-08-21T06:32:08;4.00;;;1.60;;
43519;SDS011;46848;51.980;5.918;2023-08-21T06:34:35;7.07;;;1.60;;
43519;SDS011;46848;51.980;5.918;2023-08-21T06:37:01;4.57;;;1.38;;
43519;SDS011;46848;51.980;5.918;2023-08-21T06:39:26;7.45;;;2.15;;
43519;SDS011;46848;51.980;5.918;2023-08-21T06:41:52;5.93;;;1.42;;
43519;SDS011;46848;51.980;5.918;2023-08-21T06:44:18;7.35;;;1.85;;
43519;SDS011;46848;51.980;5.918;2023-08-21T06:46:45;6.75;;;1.80;;
43519;SDS011;46848;51.980;5.918;2023-08-21T06:49:11;4.53;;;1.08;;
43519;SDS011;46848;51.980;5.918;2023-08-21T06:51:38;5.30;;;1.30;;
43519;SDS011;46848;51.980;5.918;2023-08-21T06:54:03;6.07;;;1.25;;
43519;SDS011;46848;51.980;5.918;2023-08-21T06:56:29;8.23;;;3.17;;
43519;SDS011;46848;51.980;5.918;2023-08-21T06:58:54;7.70;;;3.10;;
43519;SDS011;46848;51.980;5.918;2023-08-21T07:01:20;7.70;;;2.83;;
43519;SDS011;46848;51.980;5.918;2023-08-21T07:03:46;8.32;;;2.60;;
43519;SDS011;46848;51.980;5.918;2023-08-21T07:06:12;8.18;;;2.97;;
43519;SDS011;46848;51.980;5.918;2023-08-21T07:08:38;6.03;;;2.33;;
43519;SDS011;46848;51.980;5.918;2023-08-21T07:11:05;7.15;;;2.40;;
43519;SDS011;46848;51.980;5.918;2023-08-21T07:13:33;5.63;;;1.80;;
43519;SDS011;46848;51.980;5.918;2023-08-21T07:15:59;5.13;;;1.60;;
43519;SDS011;46848;51.980;5.918;2023-08-21T07:18:27;5.95;;;2.17;;
43519;SDS011;46848;51.980;5.918;2023-08-21T07:20:53;6.28;;;2.08;;
43519;SDS011;46848;51.980;5.918;2023-08-21T07:23:18;5.32;;;1.52;;
43519;SDS011;46848;51.980;5.918;2023-08-21T07:25:44;4.28;;;1.50;;
43519;SDS011;46848;51.980;5.918;2023-08-21T07:28:09;4.90;;;1.73;;
43519;SDS011;46848;51.980;5.918;2023-08-21T07:30:36;3.58;;;1.10;;
43519;SDS011;46848;51.980;5.918;2023-08-21T07:33:03;2.95;;;0.73;;
43519;SDS011;46848;51.980;5.918;2023-08-21T07:35:32;4.97;;;1.40;;
43519;SDS011;46848;51.980;5.918;2023-08-21T07:37:58;6.78;;;1.35;;
43519;SDS011;46848;51.980;5.918;2023-08-21T07:40:24;4.35;;;1.33;;
43519;SDS011;46848;51.980;5.918;2023-08-21T07:42:51;4.80;;;1.50;;
43519;SDS011;46848;51.980;5.918;2023-08-21T07:45:16;3.67;;;1.00;;
43519;SDS011;46848;51.980;5.918;2023-08-21T07:47:42;4.00;;;1.40;;
43519;SDS011;46848;51.980;5.918;2023-08-21T07:50:08;5.82;;;1.40;;
43519;SDS011;46848;51.980;5.918;2023-08-21T07:52:34;4.38;;;1.10;;
43519;SDS011;46848;51.980;5.918;2023-08-21T07:55:01;3.35;;;1.10;;
43519;SDS011;46848;51.980;5.918;2023-08-21T07:57:27;7.13;;;1.40;;
43519;SDS011;46848;51.980;5.918;2023-08-21T07:59:55;6.30;;;1.33;;
43519;SDS011;46848;51.980;5.918;2023-08-21T08:02:21;5.43;;;1.17;;
43519;SDS011;46848;51.980;5.918;2023-08-21T08:04:48;4.50;;;1.40;;
43519;SDS011;46848;51.980;5.918;2023-08-21T08:07:14;7.13;;;1.50;;
43519;SDS011;46848;51.980;5.918;2023-08-21T08:09:40;5.65;;;1.23;;
43519;SDS011;46848;51.980;5.918;2023-08-21T08:12:06;6.25;;;1.60;;
43519;SDS011;46848;51.980;5.918;2023-08-21T08:14:32;4.03;;;1.35;;
43519;SDS011;46848;51.980;5.918;2023-08-21T08:16:57;5.68;;;1.27;;
43519;SDS011;46848;51.980;5.918;2023-08-21T08:19:23;3.88;;;1.00;;
43519;SDS011;46848;51.980;5.918;2023-08-21T08:21:49;5.10;;;1.23;;
43519;SDS011;46848;51.980;5.918;2023-08-21T08:24:14;5.40;;;1.23;;
43519;SDS011;46848;51.980;5.918;2023-08-21T08:26:40;6.25;;;1.48;;
43519;SDS011;46848;51.980;5.918;2023-08-21T08:29:08;5.57;;;1.50;;
43519;SDS011;46848;51.980;5.918;2023-08-21T08:31:33;3.40;;;0.95;;
43519;SDS011;46848;51.980;5.918;2023-08-21T08:33:59;4.68;;;1.35;;
43519;SDS011;46848;51.980;5.918;2023-08-21T08:36:25;7.18;;;1.60;;
43519;SDS011;46848;51.980;5.918;2023-08-21T08:38:50;5.57;;;1.50;;
43519;SDS011;46848;51.980;5.918;2023-08-21T08:41:29;5.40;;;1.33;;
43519;SDS011;46848;51.980;5.918;2023-08-21T08:44:08;4.68;;;1.23;;
43519;SDS011;46848;51.980;5.918;2023-08-21T08:46:35;5.60;;;1.40;;
43519;SDS011;46848;51.980;5.918;2023-08-21T08:49:02;6.88;;;1.33;;
43519;SDS011;46848;51.980;5.918;2023-08-21T08:51:29;3.88;;;1.30;;
43519;SDS011;46848;51.980;5.918;2023-08-21T08:53:57;5.07;;;1.33;;
43519;SDS011;46848;51.980;5.918;2023-08-21T08:56:24;4.22;;;1.17;;
43519;SDS011;46848;51.980;5.918;2023-08-21T08:58:50;5.20;;;1.30;;
43519;SDS011;46848;51.980;5.918;2023-08-21T09:01:16;3.63;;;1.30;;
43519;SDS011;46848;51.980;5.918;2023-08-21T09:03:41;3.83;;;1.00;;
43519;SDS011;46848;51.980;5.918;2023-08-21T09:06:07;8.05;;;2.35;;
43519;SDS011;46848;51.980;5.918;2023-08-21T09:08:32;5.50;;;1.80;;
43519;SDS011;46848;51.980;5.918;2023-08-21T09:11:00;5.38;;;1.58;;
43519;SDS011;46848;51.980;5.918;2023-08-21T09:13:28;5.78;;;1.70;;
43519;SDS011;46848;51.980;5.918;2023-08-21T09:15:55;5.05;;;1.30;;
43519;SDS011;46848;51.980;5.918;2023-08-21T09:18:21;5.82;;;1.70;;
43519;SDS011;46848;51.980;5.918;2023-08-21T09:20:47;4.93;;;1.63;;
43519;SDS011;46848;51.980;5.918;2023-08-21T09:23:16;4.93;;;1.63;;
43519;SDS011;46848;51.980;5.918;2023-08-21T09:25:46;4.57;;;1.40;;
43519;SDS011;46848;51.980;5.918;2023-08-21T09:28:13;5.20;;;1.33;;
43519;SDS011;46848;51.980;5.918;2023-08-21T09:30:49;8.18;;;1.85;;
43519;SDS011;46848;51.980;5.918;2023-08-21T09:33:20;5.03;;;1.30;;
43519;SDS011;46848;51.980;5.918;2023-08-21T09:35:48;5.65;;;1.20;;
43519;SDS011;46848;51.980;5.918;2023-08-21T09:38:17;6.78;;;1.27;;
43519;SDS011;46848;51.980;5.918;2023-08-21T09:40:49;7.32;;;1.60;;
43519;SDS011;46848;51.980;5.918;2023-08-21T09:43:16;5.80;;;1.60;;
43519;SDS011;46848;51.980;5.918;2023-08-21T09:45:42;4.10;;;1.08;;
43519;SDS011;46848;51.980;5.918;2023-08-21T09:48:11;5.03;;;1.17;;
43519;SDS011;46848;51.980;5.918;2023-08-21T09:50:38;4.28;;;1.30;;
43519;SDS011;46848;51.980;5.918;2023-08-21T09:53:08;5.45;;;1.30;;
43519;SDS011;46848;51.980;5.918;2023-08-21T09:55:35;3.83;;;1.35;;
43519;SDS011;46848;51.980;5.918;2023-08-21T09:58:01;4.40;;;1.15;;
43519;SDS011;46848;51.980;5.918;2023-08-21T10:00:31;3.95;;;1.38;;
43519;SDS011;46848;51.980;5.918;2023-08-21T10:03:00;3.97;;;1.30;;
43519;SDS011;46848;51.980;5.918;2023-08-21T10:05:27;5.03;;;1.20;;
43519;SDS011;46848;51.980;5.918;2023-08-21T10:07:55;4.95;;;1.30;;
43519;SDS011;46848;51.980;5.918;2023-08-21T10:10:21;6.38;;;1.23;;
43519;SDS011;46848;51.980;5.918;2023-08-21T10:12:48;5.78;;;1.45;;
43519;SDS011;46848;51.980;5.918;2023-08-21T10:15:14;3.53;;;0.90;;
43519;SDS011;46848;51.980;5.918;2023-08-21T10:17:41;5.32;;;1.50;;
43519;SDS011;46848;51.980;5.918;2023-08-21T10:20:08;3.08;;;0.75;;
43519;SDS011;46848;51.980;5.918;2023-08-21T10:22:38;4.57;;;1.05;;
43519;SDS011;46848;51.980;5.918;2023-08-21T10:25:17;3.90;;;1.40;;
43519;SDS011;46848;51.980;5.918;2023-08-21T10:27:51;3.60;;;1.10;;
43519;SDS011;46848;51.980;5.918;2023-08-21T10:32:49;7.63;;;1.50;;
43519;SDS011;46848;51.980;5.918;2023-08-21T10:35:35;4.45;;;1.20;;
43519;SDS011;46848;51.980;5.918;2023-08-21T10:40:30;4.13;;;0.80;;
43519;SDS011;46848;51.980;5.918;2023-08-21T10:42:55;4.03;;;1.17;;
43519;SDS011;46848;51.980;5.918;2023-08-21T10:45:21;3.08;;;0.90;;
43519;SDS011;46848;51.980;5.918;2023-08-21T10:47:47;3.42;;;1.08;;
43519;SDS011;46848;51.980;5.918;2023-08-21T10:50:14;9.07;;;1.52;;
43519;SDS011;46848;51.980;5.918;2023-08-21T10:52:40;4.47;;;1.15;;
43519;SDS011;46848;51.980;5.918;2023-08-21T10:55:10;3.80;;;1.05;;
43519;SDS011;46848;51.980;5.918;2023-08-21T10:57:37;4.40;;;1.17;;
43519;SDS011;46848;51.980;5.918;2023-08-21T11:02:37;4.70;;;1.10;;
43519;SDS011;46848;51.980;5.918;2023-08-21T11:05:09;4.45;;;1.20;;
43519;SDS011;46848;51.980;5.918;2023-08-21T11:07:39;3.72;;;1.00;;
43519;SDS011;46848;51.980;5.918;2023-08-21T11:10:06;4.75;;;1.17;;
43519;SDS011;46848;51.980;5.918;2023-08-21T11:12:33;4.47;;;1.08;;
43519;SDS011;46848;51.980;5.918;2023-08-21T11:14:59;6.68;;;1.70;;
43519;SDS011;46848;51.980;5.918;2023-08-21T11:17:25;4.05;;;1.17;;
43519;SDS011;46848;51.980;5.918;2023-08-21T11:19:50;5.35;;;1.23;;
43519;SDS011;46848;51.980;5.918;2023-08-21T11:22:17;4.38;;;1.50;;
43519;SDS011;46848;51.980;5.918;2023-08-21T11:24:43;5.82;;;0.95;;
43519;SDS011;46848;51.980;5.918;2023-08-21T11:27:14;3.63;;;0.93;;
43519;SDS011;46848;51.980;5.918;2023-08-21T11:29:47;3.95;;;1.10;;
43519;SDS011;46848;51.980;5.918;2023-08-21T11:32:15;8.02;;;1.38;;
43519;SDS011;46848;51.980;5.918;2023-08-21T11:34:41;6.22;;;1.20;;
43519;SDS011;46848;51.980;5.918;2023-08-21T11:37:09;3.25;;;0.93;;
43519;SDS011;46848;51.980;5.918;2023-08-21T11:39:41;2.50;;;0.90;;
43519;SDS011;46848;51.980;5.918;2023-08-21T11:42:14;3.65;;;1.05;;
43519;SDS011;46848;51.980;5.918;2023-08-21T11:44:41;3.60;;;1.10;;
43519;SDS011;46848;51.980;5.918;2023-08-21T11:47:17;3.22;;;0.95;;
43519;SDS011;46848;51.980;5.918;2023-08-21T11:49:43;3.97;;;0.95;;
43519;SDS011;46848;51.980;5.918;2023-08-21T11:52:12;4.32;;;1.15;;
43519;SDS011;46848;51.980;5.918;2023-08-21T11:54:40;2.50;;;0.90;;
43519;SDS011;46848;51.980;5.918;2023-08-21T11:57:06;3.25;;;1.10;;
43519;SDS011;46848;51.980;5.918;2023-08-21T11:59:33;3.15;;;0.90;;
43519;SDS011;46848;51.980;5.918;2023-08-21T12:01:59;3.85;;;0.85;;
43519;SDS011;46848;51.980;5.918;2023-08-21T12:04:25;4.00;;;0.90;;
43519;SDS011;46848;51.980;5.918;2023-08-21T12:06:52;4.60;;;1.15;;
43519;SDS011;46848;51.980;5.918;2023-08-21T12:09:18;3.63;;;0.90;;
43519;SDS011;46848;51.980;5.918;2023-08-21T12:11:44;4.07;;;1.02;;
43519;SDS011;46848;51.980;5.918;2023-08-21T12:14:10;3.70;;;1.15;;
43519;SDS011;46848;51.980;5.918;2023-08-21T12:16:36;3.17;;;0.88;;
43519;SDS011;46848;51.980;5.918;2023-08-21T12:19:02;4.07;;;1.25;;
43519;SDS011;46848;51.980;5.918;2023-08-21T12:21:28;5.55;;;1.00;;
43519;SDS011;46848;51.980;5.918;2023-08-21T12:23:54;4.53;;;0.98;;
43519;SDS011;46848;51.980;5.918;2023-08-21T12:26:19;3.60;;;1.00;;
43519;SDS011;46848;51.980;5.918;2023-08-21T12:28:48;4.97;;;1.08;;
43519;SDS011;46848;51.980;5.918;2023-08-21T12:31:14;4.35;;;1.05;;
43519;SDS011;46848;51.980;5.918;2023-08-21T12:33:40;4.22;;;1.40;;
43519;SDS011;46848;51.980;5.918;2023-08-21T12:36:06;4.05;;;0.82;;
43519;SDS011;46848;51.980;5.918;2023-08-21T12:38:33;6.97;;;1.50;;
43519;SDS011;46848;51.980;5.918;2023-08-21T12:41:00;4.85;;;1.00;;
43519;SDS011;46848;51.980;5.918;2023-08-21T12:43:27;3.63;;;1.00;;
43519;SDS011;46848;51.980;5.918;2023-08-21T12:45:53;3.72;;;1.10;;
43519;SDS011;46848;51.980;5.918;2023-08-21T12:48:18;3.83;;;0.90;;
43519;SDS011;46848;51.980;5.918;2023-08-21T12:50:44;5.57;;;0.85;;
43519;SDS011;46848;51.980;5.918;2023-08-21T12:53:09;3.75;;;1.02;;
43519;SDS011;46848;51.980;5.918;2023-08-21T12:55:35;3.80;;;1.10;;
43519;SDS011;46848;51.980;5.918;2023-08-21T12:58:01;3.45;;;0.93;;
43519;SDS011;46848;51.980;5.918;2023-08-21T13:00:28;5.60;;;1.45;;
43519;SDS011;46848;51.980;5.918;2023-08-21T13:02:53;5.68;;;1.10;;
43519;SDS011;46848;51.980;5.918;2023-08-21T13:05:19;5.25;;;0.95;;
43519;SDS011;46848;51.980;5.918;2023-08-21T13:07:45;3.83;;;1.23;;
43519;SDS011;46848;51.980;5.918;2023-08-21T13:10:10;3.63;;;1.13;;
43519;SDS011;46848;51.980;5.918;2023-08-21T13:12:36;2.92;;;0.85;;
43519;SDS011;46848;51.980;5.918;2023-08-21T13:15:02;4.47;;;1.38;;
43519;SDS011;46848;51.980;5.918;2023-08-21T13:17:28;3.25;;;0.93;;
43519;SDS011;46848;51.980;5.918;2023-08-21T13:19:53;7.57;;;1.40;;
43519;SDS011;46848;51.980;5.918;2023-08-21T13:22:19;4.93;;;1.00;;
43519;SDS011;46848;51.980;5.918;2023-08-21T13:24:45;4.07;;;1.13;;
43519;SDS011;46848;51.980;5.918;2023-08-21T13:27:10;2.10;;;0.77;;
43519;SDS011;46848;51.980;5.918;2023-08-21T13:29:37;3.72;;;1.10;;
43519;SDS011;46848;51.980;5.918;2023-08-21T13:32:02;3.38;;;0.93;;
43519;SDS011;46848;51.980;5.918;2023-08-21T13:34:28;5.78;;;1.10;;
43519;SDS011;46848;51.980;5.918;2023-08-21T13:36:54;5.95;;;1.25;;
43519;SDS011;46848;51.980;5.918;2023-08-21T13:39:20;5.88;;;1.25;;
43519;SDS011;46848;51.980;5.918;2023-08-21T13:41:47;5.25;;;1.17;;
43519;SDS011;46848;51.980;5.918;2023-08-21T13:44:15;4.43;;;1.02;;
43519;SDS011;46848;51.980;5.918;2023-08-21T13:46:41;4.03;;;1.00;;
43519;SDS011;46848;51.980;5.918;2023-08-21T13:49:06;4.53;;;1.20;;
43519;SDS011;46848;51.980;5.918;2023-08-21T13:51:32;2.85;;;0.90;;
43519;SDS011;46848;51.980;5.918;2023-08-21T13:53:58;1.83;;;0.60;;
43519;SDS011;46848;51.980;5.918;2023-08-21T13:56:24;3.25;;;0.98;;
43519;SDS011;46848;51.980;5.918;2023-08-21T13:58:49;3.78;;;1.00;;
43519;SDS011;46848;51.980;5.918;2023-08-21T14:01:15;2.95;;;1.35;;
43519;SDS011;46848;51.980;5.918;2023-08-21T14:03:41;2.25;;;0.80;;
43519;SDS011;46848;51.980;5.918;2023-08-21T14:06:07;4.15;;;0.70;;
43519;SDS011;46848;51.980;5.918;2023-08-21T14:08:36;2.00;;;0.68;;
43519;SDS011;46848;51.980;5.918;2023-08-21T14:11:02;3.17;;;0.80;;
43519;SDS011;46848;51.980;5.918;2023-08-21T14:13:28;3.00;;;1.08;;
43519;SDS011;46848;51.980;5.918;2023-08-21T14:15:53;1.92;;;0.55;;
43519;SDS011;46848;51.980;5.918;2023-08-21T14:18:19;2.92;;;0.57;;
43519;SDS011;46848;51.980;5.918;2023-08-21T14:20:44;1.25;;;0.38;;
43519;SDS011;46848;51.980;5.918;2023-08-21T14:23:10;1.60;;;0.60;;
43519;SDS011;46848;51.980;5.918;2023-08-21T14:25:36;2.10;;;0.50;;
43519;SDS011;46848;51.980;5.918;2023-08-21T14:28:02;3.08;;;0.60;;
43519;SDS011;46848;51.980;5.918;2023-08-21T14:30:28;3.72;;;0.65;;
43519;SDS011;46848;51.980;5.918;2023-08-21T14:32:55;4.53;;;0.70;;
43519;SDS011;46848;51.980;5.918;2023-08-21T14:35:21;2.67;;;0.68;;
43519;SDS011;46848;51.980;5.918;2023-08-21T14:37:47;3.25;;;0.63;;
43519;SDS011;46848;51.980;5.918;2023-08-21T14:40:12;3.17;;;0.50;;
43519;SDS011;46848;51.980;5.918;2023-08-21T14:42:38;3.15;;;0.63;;
43519;SDS011;46848;51.980;5.918;2023-08-21T14:45:04;3.40;;;0.85;;
43519;SDS011;46848;51.980;5.918;2023-08-21T14:47:30;1.90;;;0.50;;
43519;SDS011;46848;51.980;5.918;2023-08-21T14:49:56;3.58;;;1.00;;
43519;SDS011;46848;51.980;5.918;2023-08-21T14:52:22;4.60;;;0.88;;
43519;SDS011;46848;51.980;5.918;2023-08-21T14:54:49;2.40;;;0.50;;
43519;SDS011;46848;51.980;5.918;2023-08-21T14:57:15;2.65;;;0.52;;